Pietro Novelli — IOTQ — position and weather

sailwx.info

Track history (hours):
 
Tides and Currents Weather Stations Pressure Air Temp Water Temp Dewpoint Dewpoint Depression Visibility Wind Speed Wind Dir Waves Ship Positions

Pietro Novelli

Last reported at 2017-May-26 17:26 UTC. Time now 2017-May-26 18:48 UTC.
Position N 38°01' E 012°30'.

Length 91 m; draft 3.7 m.

Type: Ship (hazmat cat A). MMSI: 247000300.

Date/timePositionNaut miles runAvg speedWind from/ knotsBaromVisibWave heightAir tempDewpointWater temp
2017-May-26 17:26N 38°01' E 012°30'0 0.0
2017-May-26 16:56N 38°01' E 012°30'0 0.0
2017-May-26 16:30N 38°01' E 012°30'54 3.8
2017-May-26 02:17N 37°12' E 012°01'310.6
2017-May-26 01:59N 37°15' E 012°02'510.6
2017-May-26 01:30N 37°20' E 012°04'510.4
2017-May-26 00:59N 37°25' E 012°06'510.6
2017-May-26 00:30N 37°29' E 012°09'611.2
2017-May-26 00:00N 37°34' E 012°12'910.8
2017-May-25 23:10N 37°41' E 012°19'3 9.9
2017-May-25 22:54N 37°44' E 012°20'610.3
2017-May-25 22:21N 37°49' E 012°22'410.7
2017-May-25 22:00N 37°53' E 012°23'611.9
2017-May-25 21:30N 37°58' E 012°26'4 8.1
2017-May-25 21:00N 38°01' E 012°30'0 0.0
2017-May-25 20:30N 38°01' E 012°30'0 0.0
2017-May-25 20:00N 38°01' E 012°30'0 0.0
2017-May-25 19:30N 38°01' E 012°30'0 0.0
2017-May-25 19:00N 38°01' E 012°30'0 0.0
2017-May-25 18:30N 38°01' E 012°30'0 0.0
2017-May-25 18:00N 38°01' E 012°30'0 0.0
2017-May-25 17:30N 38°01' E 012°30'0 0.0
2017-May-25 17:00N 38°01' E 012°30'0 0.0
2017-May-25 16:30N 38°01' E 012°30'0 0.0
2017-May-25 16:00N 38°01' E 012°30'0 0.0
2017-May-25 15:30N 38°01' E 012°30'0 0.0
2017-May-25 15:00N 38°01' E 012°30'1 1.2
2017-May-25 14:00N 37°60' E 012°29'612.2
2017-May-25 13:30N 37°56' E 012°24'612.9
2017-May-25 13:01N 37°50' E 012°21'713.2
2017-May-25 12:31N 37°43' E 012°18'612.7
2017-May-25 12:01N 37°38' E 012°15'712.8
2017-May-25 11:30N 37°32' E 012°12'812.9
2017-May-25 10:52N 37°24' E 012°08'1213.5
2017-May-25 09:59N 37°13' E 012°03'813.6
2017-May-25 09:23N 37°05' E 011°59'513.5
2017-May-25 08:59N 36°60' E 011°60'10 2.1
2017-May-25 04:17N 36°50' E 011°56'1610.9
2017-May-25 02:50N 37°06' E 011°59'5110.5
2017-May-24 22:02N 37°53' E 012°22'012.0
2017-May-24 22:00N 37°53' E 012°22'612.2
2017-May-24 21:30N 37°58' E 012°27'4 6.1
2017-May-24 20:53N 38°01' E 012°30'0 0.0
2017-May-24 20:11N 38°01' E 012°30'0 0.0
2017-May-24 19:23N 38°01' E 012°30'0 0.0
2017-May-24 18:52N 38°01' E 012°30'0 0.0
2017-May-24 18:30N 38°01' E 012°30'0 0.0
2017-May-24 18:00N 38°01' E 012°30'0 0.0
2017-May-24 17:30N 38°01' E 012°30'0 0.0
2017-May-24 17:00N 38°01' E 012°30'0 0.0
2017-May-24 16:30N 38°01' E 012°30'0 0.0
2017-May-24 16:00N 38°01' E 012°30'0 0.0
2017-May-24 15:30N 38°01' E 012°30'0 0.0
2017-May-24 14:59N 38°01' E 012°30'0 0.0
2017-May-24 14:30N 38°01' E 012°30'5 5.4
2017-May-24 13:30N 37°57' E 012°25'65 6.6
2017-May-24 03:40N 36°56' E 011°58'5910.5
2017-May-23 22:01N 37°53' E 012°22'112.2
2017-May-23 21:59N 37°53' E 012°22'511.6
2017-May-23 21:30N 37°58' E 012°26'5 8.9
2017-May-23 21:00N 38°01' E 012°30'0 0.0
2017-May-23 20:30N 38°01' E 012°30'0 0.0
2017-May-23 20:01N 38°01' E 012°30'0 0.0
2017-May-23 19:30N 38°01' E 012°30'0 0.0
2017-May-23 19:00N 38°01' E 012°30'0 0.0
2017-May-23 18:30N 38°01' E 012°30'0 0.0
2017-May-23 18:01N 38°01' E 012°30'0 0.0
2017-May-23 17:30N 38°01' E 012°30'0 0.0
2017-May-23 17:00N 38°01' E 012°30'0 0.0
2017-May-23 16:30N 38°01' E 012°30'0 0.0
2017-May-23 16:00N 38°01' E 012°30'0 0.0
2017-May-23 15:30N 38°01' E 012°30'0 0.0
2017-May-23 15:00N 38°01' E 012°30'0 0.0
2017-May-23 14:30N 38°01' E 012°30'6 5.8
2017-May-23 13:30N 37°57' E 012°25'2513.0
2017-May-23 11:34N 37°34' E 012°13'213.2
2017-May-23 11:26N 37°32' E 012°12'2813.3
2017-May-23 09:18N 37°05' E 012°02'413.6
2017-May-23 09:00N 37°01' E 012°00'713.8
2017-May-23 08:30N 36°54' E 011°58'4 3.2
2017-May-23 07:07N 36°50' E 011°56'0 0.0
2017-May-23 06:50N 36°50' E 011°56'0 0.0
2017-May-23 06:26N 36°50' E 011°56'0 0.0
2017-May-23 05:20N 36°50' E 011°56'0 0.0
2017-May-23 04:49N 36°50' E 011°56'0 0.0
2017-May-23 04:28N 36°50' E 011°56'10 8.7
2017-May-23 03:17N 37°00' E 011°59'4 9.8
2017-May-23 02:52N 37°04' E 012°01'1710.5
2017-May-23 01:15N 37°20' E 012°09'310.4
2017-May-23 01:00N 37°22' E 012°10'1210.5
2017-May-22 23:53N 37°33' E 012°16'2110.3
2017-May-22 21:52N 37°53' E 012°22'512.9
2017-May-22 21:30N 37°57' E 012°25'611.2
2017-May-22 21:00N 38°01' E 012°30'0 0.0
2017-May-22 20:30N 38°01' E 012°30'0 0.0
2017-May-22 20:00N 38°01' E 012°30'0 0.0
2017-May-22 19:30N 38°01' E 012°30'0 0.0
2017-May-22 19:00N 38°01' E 012°30'0 0.0
2017-May-22 18:30N 38°01' E 012°30'0 0.0
2017-May-22 18:00N 38°01' E 012°30'0 0.0
2017-May-22 17:30N 38°01' E 012°30'0 0.0
2017-May-22 17:00N 38°01' E 012°30'0 0.0
2017-May-22 16:30N 38°01' E 012°30'0 0.0
2017-May-22 16:00N 38°01' E 012°30'0 0.0
2017-May-22 15:30N 38°01' E 012°30'0 0.0
2017-May-22 15:00N 38°01' E 012°30'0 0.0
2017-May-22 14:00N 38°01' E 012°30'510.0
2017-May-22 13:30N 37°58' E 012°25'713.1
2017-May-22 13:00N 37°52' E 012°22'65 7.9
2017-May-22 04:47N 36°50' E 011°56'65 9.6
2017-May-21 22:00N 37°52' E 012°21'612.6
2017-May-21 21:30N 37°58' E 012°25'510.1
2017-May-21 21:01N 38°01' E 012°30'0 0.0
2017-May-21 20:30N 38°01' E 012°30'0 0.0
2017-May-21 20:01N 38°01' E 012°30'0 0.0
2017-May-21 19:31N 38°01' E 012°30'0 0.0
2017-May-21 19:00N 38°01' E 012°30'0 0.0
2017-May-21 18:30N 38°01' E 012°30'0 0.0
2017-May-21 18:00N 38°01' E 012°30'0 0.0
2017-May-21 17:30N 38°01' E 012°30'0 0.0
2017-May-21 17:00N 38°01' E 012°30'0 0.0
2017-May-21 16:30N 38°01' E 012°30'0 0.0
2017-May-21 16:00N 38°01' E 012°30'0 0.0
2017-May-21 15:30N 38°01' E 012°30'0 0.0
2017-May-21 15:00N 38°01' E 012°30'0 0.0
2017-May-21 14:00N 38°01' E 012°30'0 0.0
2017-May-21 13:30N 38°01' E 012°30'0 0.0
2017-May-21 13:00N 38°01' E 012°30'0 0.0
2017-May-21 12:30N 38°01' E 012°30'0 0.0
2017-May-21 12:00N 38°01' E 012°30'0 0.0
2017-May-21 11:30N 38°01' E 012°30'0 0.0
2017-May-21 11:00N 38°01' E 012°30'0 0.0
2017-May-21 10:30N 38°01' E 012°30'0 0.0
2017-May-21 10:00N 38°01' E 012°30'0 0.0
2017-May-21 09:31N 38°01' E 012°30'0 0.0
2017-May-21 09:00N 38°01' E 012°30'0 0.0
2017-May-21 08:30N 38°01' E 012°30'0 0.0
2017-May-21 08:01N 38°01' E 012°30'0 0.0
2017-May-21 07:31N 38°01' E 012°30'0 0.0
2017-May-21 07:00N 38°01' E 012°30'0 0.0
2017-May-21 06:30N 38°01' E 012°30'0 0.0
2017-May-21 06:01N 38°01' E 012°30'0 0.0
2017-May-21 05:30N 38°01' E 012°30'0 0.0
2017-May-21 05:00N 38°01' E 012°30'0 0.0
2017-May-21 04:30N 38°01' E 012°30'0 0.0
2017-May-21 04:00N 38°01' E 012°30'0 0.0
2017-May-21 03:31N 38°01' E 012°30'0 0.0
2017-May-21 03:00N 38°01' E 012°30'0 0.0
2017-May-21 02:30N 38°01' E 012°30'0 0.0
2017-May-21 02:00N 38°01' E 012°30'0 0.0
2017-May-21 01:30N 38°01' E 012°30'0 0.0
2017-May-21 01:00N 38°01' E 012°30'0 0.0
2017-May-21 00:30N 38°01' E 012°30'0 0.0
2017-May-21 00:00N 38°01' E 012°30'0 0.0
2017-May-20 23:29N 38°01' E 012°30'0 0.0
2017-May-20 23:00N 38°01' E 012°30'0 0.0
2017-May-20 22:30N 38°01' E 012°30'0 0.0
2017-May-20 22:00N 38°01' E 012°30'0 0.0
2017-May-20 21:30N 38°01' E 012°30'0 0.0
2017-May-20 21:00N 38°01' E 012°30'0 0.0
2017-May-20 20:31N 38°01' E 012°30'0 0.0
2017-May-20 20:00N 38°01' E 012°30'0 0.0
2017-May-20 19:30N 38°01' E 012°30'0 0.0
2017-May-20 19:01N 38°01' E 012°30'0 0.0
2017-May-20 18:30N 38°01' E 012°30'0 0.0
2017-May-20 18:01N 38°01' E 012°30'0 0.0
2017-May-20 17:30N 38°01' E 012°30'0 0.1
2017-May-20 17:01N 38°01' E 012°30'510.7
2017-May-20 16:30N 37°58' E 012°25'5 0.3
2017-May-19 22:17N 37°53' E 012°22'3 9.9
2017-May-19 22:00N 37°55' E 012°24'510.1
2017-May-19 21:30N 37°60' E 012°27'3 6.0
2017-May-19 21:00N 38°01' E 012°30'0 0.0
2017-May-19 20:30N 38°01' E 012°30'0 0.0
2017-May-19 20:00N 38°01' E 012°30'0 0.0
2017-May-19 19:30N 38°01' E 012°30'0 0.0
2017-May-19 19:00N 38°01' E 012°30'0 0.0
2017-May-19 18:30N 38°01' E 012°30'0 0.0
2017-May-19 17:59N 38°01' E 012°30'0 0.0
2017-May-19 17:30N 38°01' E 012°30'0 0.0
2017-May-19 17:00N 38°01' E 012°30'0 0.0
2017-May-19 16:30N 38°01' E 012°30'0 0.0
2017-May-19 16:01N 38°01' E 012°30'4 7.6
2017-May-19 15:30N 37°59' E 012°26'713.6
2017-May-19 15:00N 37°53' E 012°22'66 6.2
2017-May-19 04:18N 36°50' E 011°56'2 7.9
2017-May-19 04:00N 36°53' E 011°57'611.5
2017-May-19 03:30N 36°58' E 011°58'611.4
2017-May-19 02:59N 37°04' E 011°58'2011.2
2017-May-19 01:11N 37°23' E 012°07'210.9
2017-May-19 01:00N 37°25' E 012°08'1611.2
2017-May-18 23:36N 37°39' E 012°16'211.0
2017-May-18 23:28N 37°40' E 012°17'1011.2
2017-May-18 22:34N 37°50' E 012°21'111.3
2017-May-18 22:30N 37°51' E 012°21'510.9
2017-May-18 22:00N 37°56' E 012°24'611.5
2017-May-18 21:30N 38°00' E 012°29'1 2.9
2017-May-18 21:00N 38°01' E 012°30'0 0.0
2017-May-18 20:30N 38°01' E 012°30'0 0.0
2017-May-18 20:00N 38°01' E 012°30'0 0.0
2017-May-18 19:30N 38°01' E 012°30'0 0.0
2017-May-18 19:00N 38°01' E 012°30'0 0.0
2017-May-18 18:30N 38°01' E 012°30'0 0.0
2017-May-18 18:00N 38°01' E 012°30'0 0.0
2017-May-18 17:30N 38°01' E 012°30'0 0.0
2017-May-18 17:00N 38°01' E 012°30'0 0.0
2017-May-18 16:30N 38°01' E 012°30'0 0.0
2017-May-18 15:59N 38°01' E 012°30'0 0.0
2017-May-18 15:30N 38°01' E 012°30'0 0.0
2017-May-18 15:00N 38°01' E 012°30'0 0.0
2017-May-18 14:30N 38°01' E 012°30'3 3.1
2017-May-18 13:30N 37°59' E 012°27'612.9
2017-May-18 13:00N 37°54' E 012°22'713.1
2017-May-18 12:30N 37°48' E 012°19'3 0.2
2017-May-17 22:25N 37°50' E 012°21'511.7
2017-May-17 22:00N 37°55' E 012°23'611.9
2017-May-17 21:30N 37°60' E 012°28'2 4.6
2017-May-17 21:00N 38°01' E 012°30'0 0.0
2017-May-17 20:30N 38°01' E 012°30'0 0.0
2017-May-17 19:59N 38°01' E 012°30'0 0.0
2017-May-17 19:31N 38°01' E 012°30'0 0.0
2017-May-17 19:00N 38°01' E 012°30'0 0.0
2017-May-17 18:31N 38°01' E 012°30'0 0.0
2017-May-17 18:00N 38°01' E 012°30'0 0.0
2017-May-17 17:31N 38°01' E 012°30'0 0.0
2017-May-17 17:01N 38°01' E 012°30'0 0.0
2017-May-17 16:30N 38°01' E 012°30'0 0.0
2017-May-17 15:56N 38°01' E 012°30'0 0.0
2017-May-17 15:30N 38°01' E 012°30'0 0.0
2017-May-17 15:00N 38°01' E 012°30'1 1.3
2017-May-17 14:00N 37°60' E 012°29'5 9.2
2017-May-17 13:30N 37°57' E 012°24'612.3
2017-May-17 13:00N 37°52' E 012°21'612.6
2017-May-17 12:30N 37°46' E 012°19'3412.8
2017-May-17 09:51N 37°14' E 012°04'40 3.5
2017-May-16 22:31N 37°51' E 012°21'112.1
2017-May-16 22:28N 37°52' E 012°22'612.0
2017-May-16 22:00N 37°57' E 012°25'611.5
2017-May-16 21:30N 38°01' E 012°30'0 0.7
2017-May-16 21:00N 38°01' E 012°30'0 0.0
2017-May-16 20:29N 38°01' E 012°30'0 0.0
2017-May-16 20:00N 38°01' E 012°30'0 0.0
2017-May-16 19:30N 38°01' E 012°30'0 0.0
2017-May-16 19:00N 38°01' E 012°30'0 0.0
2017-May-16 18:30N 38°01' E 012°30'0 0.0
2017-May-16 18:00N 38°01' E 012°30'0 0.0
2017-May-16 17:30N 38°01' E 012°30'  
Track history (hours):
 
Tides and Currents Weather Stations Pressure Air Temp Water Temp Dewpoint Dewpoint Depression Visibility Wind Speed Wind Dir Waves Ship Positions

Pietro Novelli

Last reported at 2017-May-26 17:26 UTC. Time now 2017-May-26 18:48 UTC.
Position N 38°01' E 012°30'.

Length 91 m; draft 3.7 m.

Type: Ship (hazmat cat A). MMSI: 247000300.

Date/timePositionNaut miles runAvg speedWind from/ knotsBaromVisibWave heightAir tempDewpointWater temp
2017-May-26 17:26N 38°01' E 012°30'0 0.0
2017-May-26 16:56N 38°01' E 012°30'0 0.0
2017-May-26 16:30N 38°01' E 012°30'54 3.8
2017-May-26 02:17N 37°12' E 012°01'310.6
2017-May-26 01:59N 37°15' E 012°02'510.6
2017-May-26 01:30N 37°20' E 012°04'510.4
2017-May-26 00:59N 37°25' E 012°06'510.6
2017-May-26 00:30N 37°29' E 012°09'611.2
2017-May-26 00:00N 37°34' E 012°12'910.8
2017-May-25 23:10N 37°41' E 012°19'3 9.9
2017-May-25 22:54N 37°44' E 012°20'610.3
2017-May-25 22:21N 37°49' E 012°22'410.7
2017-May-25 22:00N 37°53' E 012°23'611.9
2017-May-25 21:30N 37°58' E 012°26'4 8.1
2017-May-25 21:00N 38°01' E 012°30'0 0.0
2017-May-25 20:30N 38°01' E 012°30'0 0.0
2017-May-25 20:00N 38°01' E 012°30'0 0.0
2017-May-25 19:30N 38°01' E 012°30'0 0.0
2017-May-25 19:00N 38°01' E 012°30'0 0.0
2017-May-25 18:30N 38°01' E 012°30'0 0.0
2017-May-25 18:00N 38°01' E 012°30'0 0.0
2017-May-25 17:30N 38°01' E 012°30'0 0.0
2017-May-25 17:00N 38°01' E 012°30'0 0.0
2017-May-25 16:30N 38°01' E 012°30'0 0.0
2017-May-25 16:00N 38°01' E 012°30'0 0.0
2017-May-25 15:30N 38°01' E 012°30'0 0.0
2017-May-25 15:00N 38°01' E 012°30'1 1.2
2017-May-25 14:00N 37°60' E 012°29'612.2
2017-May-25 13:30N 37°56' E 012°24'612.9
2017-May-25 13:01N 37°50' E 012°21'713.2
2017-May-25 12:31N 37°43' E 012°18'612.7
2017-May-25 12:01N 37°38' E 012°15'712.8
2017-May-25 11:30N 37°32' E 012°12'812.9
2017-May-25 10:52N 37°24' E 012°08'1213.5
2017-May-25 09:59N 37°13' E 012°03'813.6
2017-May-25 09:23N 37°05' E 011°59'513.5
2017-May-25 08:59N 36°60' E 011°60'10 2.1
2017-May-25 04:17N 36°50' E 011°56'1610.9
2017-May-25 02:50N 37°06' E 011°59'5110.5
2017-May-24 22:02N 37°53' E 012°22'012.0
2017-May-24 22:00N 37°53' E 012°22'612.2
2017-May-24 21:30N 37°58' E 012°27'4 6.1
2017-May-24 20:53N 38°01' E 012°30'0 0.0
2017-May-24 20:11N 38°01' E 012°30'0 0.0
2017-May-24 19:23N 38°01' E 012°30'0 0.0
2017-May-24 18:52N 38°01' E 012°30'0 0.0
2017-May-24 18:30N 38°01' E 012°30'0 0.0
2017-May-24 18:00N 38°01' E 012°30'0 0.0
2017-May-24 17:30N 38°01' E 012°30'0 0.0
2017-May-24 17:00N 38°01' E 012°30'0 0.0
2017-May-24 16:30N 38°01' E 012°30'0 0.0
2017-May-24 16:00N 38°01' E 012°30'0 0.0
2017-May-24 15:30N 38°01' E 012°30'0 0.0
2017-May-24 14:59N 38°01' E 012°30'0 0.0
2017-May-24 14:30N 38°01' E 012°30'5 5.4
2017-May-24 13:30N 37°57' E 012°25'65 6.6
2017-May-24 03:40N 36°56' E 011°58'5910.5
2017-May-23 22:01N 37°53' E 012°22'112.2
2017-May-23 21:59N 37°53' E 012°22'511.6
2017-May-23 21:30N 37°58' E 012°26'5 8.9
2017-May-23 21:00N 38°01' E 012°30'0 0.0
2017-May-23 20:30N 38°01' E 012°30'0 0.0
2017-May-23 20:01N 38°01' E 012°30'0 0.0
2017-May-23 19:30N 38°01' E 012°30'0 0.0
2017-May-23 19:00N 38°01' E 012°30'0 0.0
2017-May-23 18:30N 38°01' E 012°30'0 0.0
2017-May-23 18:01N 38°01' E 012°30'0 0.0
2017-May-23 17:30N 38°01' E 012°30'0 0.0
2017-May-23 17:00N 38°01' E 012°30'0 0.0
2017-May-23 16:30N 38°01' E 012°30'0 0.0
2017-May-23 16:00N 38°01' E 012°30'0 0.0
2017-May-23 15:30N 38°01' E 012°30'0 0.0
2017-May-23 15:00N 38°01' E 012°30'0 0.0
2017-May-23 14:30N 38°01' E 012°30'6 5.8
2017-May-23 13:30N 37°57' E 012°25'2513.0
2017-May-23 11:34N 37°34' E 012°13'213.2
2017-May-23 11:26N 37°32' E 012°12'2813.3
2017-May-23 09:18N 37°05' E 012°02'413.6
2017-May-23 09:00N 37°01' E 012°00'713.8
2017-May-23 08:30N 36°54' E 011°58'4 3.2
2017-May-23 07:07N 36°50' E 011°56'0 0.0
2017-May-23 06:50N 36°50' E 011°56'0 0.0
2017-May-23 06:26N 36°50' E 011°56'0 0.0
2017-May-23 05:20N 36°50' E 011°56'0 0.0
2017-May-23 04:49N 36°50' E 011°56'0 0.0
2017-May-23 04:28N 36°50' E 011°56'10 8.7
2017-May-23 03:17N 37°00' E 011°59'4 9.8
2017-May-23 02:52N 37°04' E 012°01'1710.5
2017-May-23 01:15N 37°20' E 012°09'310.4
2017-May-23 01:00N 37°22' E 012°10'1210.5
2017-May-22 23:53N 37°33' E 012°16'2110.3
2017-May-22 21:52N 37°53' E 012°22'512.9
2017-May-22 21:30N 37°57' E 012°25'611.2
2017-May-22 21:00N 38°01' E 012°30'0 0.0
2017-May-22 20:30N 38°01' E 012°30'0 0.0
2017-May-22 20:00N 38°01' E 012°30'0 0.0
2017-May-22 19:30N 38°01' E 012°30'0 0.0
2017-May-22 19:00N 38°01' E 012°30'0 0.0
2017-May-22 18:30N 38°01' E 012°30'0 0.0
2017-May-22 18:00N 38°01' E 012°30'0 0.0
2017-May-22 17:30N 38°01' E 012°30'0 0.0
2017-May-22 17:00N 38°01' E 012°30'0 0.0
2017-May-22 16:30N 38°01' E 012°30'0 0.0
2017-May-22 16:00N 38°01' E 012°30'0 0.0
2017-May-22 15:30N 38°01' E 012°30'0 0.0
2017-May-22 15:00N 38°01' E 012°30'0 0.0
2017-May-22 14:00N 38°01' E 012°30'510.0
2017-May-22 13:30N 37°58' E 012°25'713.1
2017-May-22 13:00N 37°52' E 012°22'65 7.9
2017-May-22 04:47N 36°50' E 011°56'65 9.6
2017-May-21 22:00N 37°52' E 012°21'612.6
2017-May-21 21:30N 37°58' E 012°25'510.1
2017-May-21 21:01N 38°01' E 012°30'0 0.0
2017-May-21 20:30N 38°01' E 012°30'0 0.0
2017-May-21 20:01N 38°01' E 012°30'0 0.0
2017-May-21 19:31N 38°01' E 012°30'0 0.0
2017-May-21 19:00N 38°01' E 012°30'0 0.0
2017-May-21 18:30N 38°01' E 012°30'0 0.0
2017-May-21 18:00N 38°01' E 012°30'0 0.0
2017-May-21 17:30N 38°01' E 012°30'0 0.0
2017-May-21 17:00N 38°01' E 012°30'0 0.0
2017-May-21 16:30N 38°01' E 012°30'0 0.0
2017-May-21 16:00N 38°01' E 012°30'0 0.0
2017-May-21 15:30N 38°01' E 012°30'0 0.0
2017-May-21 15:00N 38°01' E 012°30'0 0.0
2017-May-21 14:00N 38°01' E 012°30'0 0.0
2017-May-21 13:30N 38°01' E 012°30'0 0.0
2017-May-21 13:00N 38°01' E 012°30'0 0.0
2017-May-21 12:30N 38°01' E 012°30'0 0.0
2017-May-21 12:00N 38°01' E 012°30'0 0.0
2017-May-21 11:30N 38°01' E 012°30'0 0.0
2017-May-21 11:00N 38°01' E 012°30'0 0.0
2017-May-21 10:30N 38°01' E 012°30'0 0.0
2017-May-21 10:00N 38°01' E 012°30'0 0.0
2017-May-21 09:31N 38°01' E 012°30'0 0.0
2017-May-21 09:00N 38°01' E 012°30'0 0.0
2017-May-21 08:30N 38°01' E 012°30'0 0.0
2017-May-21 08:01N 38°01' E 012°30'0 0.0
2017-May-21 07:31N 38°01' E 012°30'0 0.0
2017-May-21 07:00N 38°01' E 012°30'0 0.0
2017-May-21 06:30N 38°01' E 012°30'0 0.0
2017-May-21 06:01N 38°01' E 012°30'0 0.0
2017-May-21 05:30N 38°01' E 012°30'0 0.0
2017-May-21 05:00N 38°01' E 012°30'0 0.0
2017-May-21 04:30N 38°01' E 012°30'0 0.0
2017-May-21 04:00N 38°01' E 012°30'0 0.0
2017-May-21 03:31N 38°01' E 012°30'0 0.0
2017-May-21 03:00N 38°01' E 012°30'0 0.0
2017-May-21 02:30N 38°01' E 012°30'0 0.0
2017-May-21 02:00N 38°01' E 012°30'0 0.0
2017-May-21 01:30N 38°01' E 012°30'0 0.0
2017-May-21 01:00N 38°01' E 012°30'0 0.0
2017-May-21 00:30N 38°01' E 012°30'0 0.0
2017-May-21 00:00N 38°01' E 012°30'0 0.0
2017-May-20 23:29N 38°01' E 012°30'0 0.0
2017-May-20 23:00N 38°01' E 012°30'0 0.0
2017-May-20 22:30N 38°01' E 012°30'0 0.0
2017-May-20 22:00N 38°01' E 012°30'0 0.0
2017-May-20 21:30N 38°01' E 012°30'0 0.0
2017-May-20 21:00N 38°01' E 012°30'0 0.0
2017-May-20 20:31N 38°01' E 012°30'0 0.0
2017-May-20 20:00N 38°01' E 012°30'0 0.0
2017-May-20 19:30N 38°01' E 012°30'0 0.0
2017-May-20 19:01N 38°01' E 012°30'0 0.0
2017-May-20 18:30N 38°01' E 012°30'0 0.0
2017-May-20 18:01N 38°01' E 012°30'0 0.0
2017-May-20 17:30N 38°01' E 012°30'0 0.1
2017-May-20 17:01N 38°01' E 012°30'510.7
2017-May-20 16:30N 37°58' E 012°25'5 0.3
2017-May-19 22:17N 37°53' E 012°22'3 9.9
2017-May-19 22:00N 37°55' E 012°24'510.1
2017-May-19 21:30N 37°60' E 012°27'3 6.0
2017-May-19 21:00N 38°01' E 012°30'0 0.0
2017-May-19 20:30N 38°01' E 012°30'0 0.0
2017-May-19 20:00N 38°01' E 012°30'0 0.0
2017-May-19 19:30N 38°01' E 012°30'0 0.0
2017-May-19 19:00N 38°01' E 012°30'0 0.0
2017-May-19 18:30N 38°01' E 012°30'0 0.0
2017-May-19 17:59N 38°01' E 012°30'0 0.0
2017-May-19 17:30N 38°01' E 012°30'0 0.0
2017-May-19 17:00N 38°01' E 012°30'0 0.0
2017-May-19 16:30N 38°01' E 012°30'0 0.0
2017-May-19 16:01N 38°01' E 012°30'4 7.6
2017-May-19 15:30N 37°59' E 012°26'713.6
2017-May-19 15:00N 37°53' E 012°22'66 6.2
2017-May-19 04:18N 36°50' E 011°56'2 7.9
2017-May-19 04:00N 36°53' E 011°57'611.5
2017-May-19 03:30N 36°58' E 011°58'611.4
2017-May-19 02:59N 37°04' E 011°58'2011.2
2017-May-19 01:11N 37°23' E 012°07'210.9
2017-May-19 01:00N 37°25' E 012°08'1611.2
2017-May-18 23:36N 37°39' E 012°16'211.0
2017-May-18 23:28N 37°40' E 012°17'1011.2
2017-May-18 22:34N 37°50' E 012°21'111.3
2017-May-18 22:30N 37°51' E 012°21'510.9
2017-May-18 22:00N 37°56' E 012°24'611.5
2017-May-18 21:30N 38°00' E 012°29'1 2.9
2017-May-18 21:00N 38°01' E 012°30'0 0.0
2017-May-18 20:30N 38°01' E 012°30'0 0.0
2017-May-18 20:00N 38°01' E 012°30'0 0.0
2017-May-18 19:30N 38°01' E 012°30'0 0.0
2017-May-18 19:00N 38°01' E 012°30'0 0.0
2017-May-18 18:30N 38°01' E 012°30'0 0.0
2017-May-18 18:00N 38°01' E 012°30'0 0.0
2017-May-18 17:30N 38°01' E 012°30'0 0.0
2017-May-18 17:00N 38°01' E 012°30'0 0.0
2017-May-18 16:30N 38°01' E 012°30'0 0.0
2017-May-18 15:59N 38°01' E 012°30'0 0.0
2017-May-18 15:30N 38°01' E 012°30'0 0.0
2017-May-18 15:00N 38°01' E 012°30'0 0.0
2017-May-18 14:30N 38°01' E 012°30'3 3.1
2017-May-18 13:30N 37°59' E 012°27'612.9
2017-May-18 13:00N 37°54' E 012°22'713.1
2017-May-18 12:30N 37°48' E 012°19'3 0.2
2017-May-17 22:25N 37°50' E 012°21'511.7
2017-May-17 22:00N 37°55' E 012°23'611.9
2017-May-17 21:30N 37°60' E 012°28'2 4.6
2017-May-17 21:00N 38°01' E 012°30'0 0.0
2017-May-17 20:30N 38°01' E 012°30'0 0.0
2017-May-17 19:59N 38°01' E 012°30'0 0.0
2017-May-17 19:31N 38°01' E 012°30'0 0.0
2017-May-17 19:00N 38°01' E 012°30'0 0.0
2017-May-17 18:31N 38°01' E 012°30'0 0.0
2017-May-17 18:00N 38°01' E 012°30'0 0.0
2017-May-17 17:31N 38°01' E 012°30'0 0.0
2017-May-17 17:01N 38°01' E 012°30'0 0.0
2017-May-17 16:30N 38°01' E 012°30'0 0.0
2017-May-17 15:56N 38°01' E 012°30'0 0.0
2017-May-17 15:30N 38°01' E 012°30'0 0.0
2017-May-17 15:00N 38°01' E 012°30'1 1.3
2017-May-17 14:00N 37°60' E 012°29'5 9.2
2017-May-17 13:30N 37°57' E 012°24'612.3
2017-May-17 13:00N 37°52' E 012°21'612.6
2017-May-17 12:30N 37°46' E 012°19'3412.8
2017-May-17 09:51N 37°14' E 012°04'40 3.5
2017-May-16 22:31N 37°51' E 012°21'112.1
2017-May-16 22:28N 37°52' E 012°22'612.0
2017-May-16 22:00N 37°57' E 012°25'611.5
2017-May-16 21:30N 38°01' E 012°30'0 0.7
2017-May-16 21:00N 38°01' E 012°30'0 0.0
2017-May-16 20:29N 38°01' E 012°30'0 0.0
2017-May-16 20:00N 38°01' E 012°30'0 0.0
2017-May-16 19:30N 38°01' E 012°30'0 0.0
2017-May-16 19:00N 38°01' E 012°30'0 0.0
2017-May-16 18:30N 38°01' E 012°30'0 0.0
2017-May-16 18:00N 38°01' E 012°30'0 0.0
2017-May-16 17:30N 38°01' E 012°30'  

Dump ship's entire track history